Airport View

Enter AWOS ICAO identifier for current METAR.

ex. KFNL

PACZ 212300Z AUTO 13015G21KT 3SM SHRA BKN013 07/05 A2929

21 Sep 2019 23:29

Phone: 907-552-2869

Other Area AWOS: PACM - PAHP - PAVA - PAMO

TAF PABE 211720Z 2118/2218 14007KT P6SM SCT150 FM212100 17014G19KT P6SM -RA BKN025 OVC050 TEMPO 2121/2201 3SM RA BKN015 OVC025 FM220100 18016G25KT P6SM -SHRA SCT015 BKN025 FM220600 19013KT P6SM SCT025 BKN050 FM221200 18012KT 2SM BR OVC050